Terminal Aerodrome Forecast
Issued by NWS Shreveport, LA

Home | Current Version | Previous Version | Text Only | Print | Product List | Glossary On
Versions: 1 2 3 4 5 6 7 8 9 10 11 12 13
000
FTUS44 KSHV 271700
TAFGGG
TAF
KGGG 271724Z 2718/2818 32016KT 4SM -RA BR OVC005
     FM280000 35014G20KT P6SM VCSH BKN007 OVC014
     FM280600 35012KT 4SM -RA BR BKN007 OVC014
     FM281200 34007KT P6SM OVC020=

USA.gov is the U.S. government's official web portal to all federal, state and local government web resources and services.